GAP2878 RPLL-RPVA
Flight info
| Callsign | GAP2878 |
|---|---|
| Flight time | N/A |
| Altitude | 33000 |
| Route | IPATA2P IPATA B462 ARREX ARREX2R |
| Aircraft | A21N/M-SDE2E3FGHIRWXY/LB1 |
Departure
| Time | N/A |
|---|---|
| Airport | Ninoy Aquino International Airport (RPLL) |
Arrival
| Time | 2026-04-16 13:09 |
|---|---|
| Airport | Daniel Z. Romualdez Airport (RPVA) |
| Time | Latitude | Longitude | Altitude | Speed | Heading |
|---|---|---|---|---|---|
| 2026-04-16 12:59 | 11.35787 | 124.79777 | 10442 ft | 294 kts | 144° |
| 2026-04-16 13:00 | 11.32401 | 124.82126 | 9647 ft | 292 kts | 144° |
| 2026-04-16 13:00 | 11.30727 | 124.83287 | 9269 ft | 289 kts | 144° |
| 2026-04-16 13:00 | 11.29096 | 124.84417 | 8934 ft | 286 kts | 144° |
| 2026-04-16 13:00 | 11.27461 | 124.85550 | 8662 ft | 278 kts | 144° |
| 2026-04-16 13:01 | 11.25855 | 124.86572 | 8471 ft | 270 kts | 154° |
| 2026-04-16 13:01 | 11.24115 | 124.87264 | 8038 ft | 270 kts | 161° |
| 2026-04-16 13:01 | 11.22274 | 124.87816 | 7312 ft | 282 kts | 164° |
| 2026-04-16 13:01 | 11.20336 | 124.88291 | 6732 ft | 288 kts | 167° |
| 2026-04-16 13:02 | 11.18375 | 124.88696 | 6286 ft | 287 kts | 168° |
| 2026-04-16 13:02 | 11.16417 | 124.89061 | 5830 ft | 285 kts | 169° |
| 2026-04-16 13:02 | 11.14467 | 124.89408 | 5388 ft | 283 kts | 170° |
| 2026-04-16 13:02 | 11.12538 | 124.89747 | 5034 ft | 278 kts | 170° |
| 2026-04-16 13:03 | 11.10648 | 124.90082 | 4693 ft | 275 kts | 170° |
| 2026-04-16 13:03 | 11.08772 | 124.90419 | 4348 ft | 272 kts | 170° |
| 2026-04-16 13:03 | 11.06923 | 124.90792 | 4009 ft | 269 kts | 162° |
| 2026-04-16 13:03 | 11.05280 | 124.91608 | 3677 ft | 265 kts | 141° |
| 2026-04-16 13:04 | 11.04115 | 124.92971 | 3344 ft | 261 kts | 115° |
| 2026-04-16 13:04 | 11.03625 | 124.94725 | 3023 ft | 256 kts | 96° |
| 2026-04-16 13:04 | 11.03458 | 124.96521 | 2701 ft | 253 kts | 93° |
| 2026-04-16 13:04 | 11.03453 | 124.98316 | 2493 ft | 257 kts | 82° |
| 2026-04-16 13:05 | 11.04040 | 125.00046 | 1981 ft | 261 kts | 54° |
| 2026-04-16 13:05 | 11.05347 | 125.01252 | 1729 ft | 250 kts | 27° |
| 2026-04-16 13:05 | 11.06951 | 125.01732 | 1688 ft | 232 kts | 8° |
| 2026-04-16 13:05 | 11.08480 | 125.01871 | 1732 ft | 214 kts | 4° |
| 2026-04-16 13:06 | 11.09887 | 125.01952 | 1714 ft | 187 kts | 4° |
| 2026-04-16 13:06 | 11.11086 | 125.02016 | 1710 ft | 167 kts | 5° |
| 2026-04-16 13:06 | 11.12179 | 125.02078 | 1712 ft | 148 kts | 6° |
| 2026-04-16 13:06 | 11.13167 | 125.02138 | 1691 ft | 140 kts | 6° |
| 2026-04-16 13:07 | 11.14141 | 125.02201 | 1605 ft | 140 kts | 6° |
| 2026-04-16 13:07 | 11.15115 | 125.02267 | 1370 ft | 140 kts | 5° |
| 2026-04-16 13:07 | 11.16092 | 125.02332 | 1179 ft | 140 kts | 5° |
| 2026-04-16 13:07 | 11.17067 | 125.02397 | 1002 ft | 141 kts | 5° |
| 2026-04-16 13:08 | 11.18045 | 125.02463 | 809 ft | 141 kts | 5° |
| 2026-04-16 13:08 | 11.19035 | 125.02530 | 525 ft | 143 kts | 5° |
| 2026-04-16 13:08 | 11.20011 | 125.02598 | 373 ft | 144 kts | 4° |
| 2026-04-16 13:08 | 11.21014 | 125.02658 | 214 ft | 145 kts | 4° |
| 2026-04-16 13:09 | 11.22011 | 125.02726 | 25 ft | 141 kts | 3° |
| 2026-04-16 13:09 | 11.22825 | 125.02778 | 16 ft | 79 kts | 4° |
| 2026-04-16 13:09 | 11.23136 | 125.02801 | 13 ft | 24 kts | 4° |
| 2026-04-16 13:09 | 11.23263 | 125.02820 | 14 ft | 10 kts | 351° |
| 2026-04-16 13:10 | 11.23274 | 125.02810 | 12 ft | 0 kts | 274° |
| 2026-04-16 13:10 | 11.23271 | 125.02807 | 12 ft | 1 kts | 224° |
| 2026-04-16 13:10 | 11.23266 | 125.02806 | 11 ft | 2 kts | 188° |
| 2026-04-16 13:10 | 11.23234 | 125.02802 | 14 ft | 5 kts | 186° |
| 2026-04-16 13:11 | 11.23199 | 125.02800 | 13 ft | 7 kts | 181° |
| 2026-04-16 13:11 | 11.23168 | 125.02799 | 14 ft | 7 kts | 182° |